sensor_id;sensor_type;location;lat;lon;timestamp;temperature;humidity
34153;DHT22;20426;48.372;10.888;2024-03-23T00:52:56;12.20;96.60
34153;DHT22;20426;48.372;10.888;2024-03-23T00:53:58;12.20;96.70
34153;DHT22;20426;48.372;10.888;2024-03-23T00:54:29;12.10;96.70
34153;DHT22;20426;48.372;10.888;2024-03-23T00:54:59;12.10;96.80
34153;DHT22;20426;48.372;10.888;2024-03-23T00:55:30;12.10;96.70
34153;DHT22;20426;48.372;10.888;2024-03-23T00:56:01;12.10;96.70
34153;DHT22;20426;48.372;10.888;2024-03-23T00:56:31;12.10;96.80
34153;DHT22;20426;48.372;10.888;2024-03-23T00:57:02;12.10;96.80
34153;DHT22;20426;48.372;10.888;2024-03-23T00:57:33;12.10;96.80
34153;DHT22;20426;48.372;10.888;2024-03-23T00:58:04;12.10;96.80
34153;DHT22;20426;48.372;10.888;2024-03-23T00:58:35;12.00;96.80
34153;DHT22;20426;48.372;10.888;2024-03-23T00:59:05;12.00;96.80
34153;DHT22;20426;48.372;10.888;2024-03-23T00:59:36;12.00;96.80
34153;DHT22;20426;48.372;10.888;2024-03-23T01:00:07;12.00;96.90
34153;DHT22;20426;48.372;10.888;2024-03-23T01:00:40;12.00;96.90
34153;DHT22;20426;48.372;10.888;2024-03-23T01:01:11;12.00;96.90
34153;DHT22;20426;48.372;10.888;2024-03-23T01:01:41;12.00;96.90
34153;DHT22;20426;48.372;10.888;2024-03-23T01:02:12;12.00;97.00
34153;DHT22;20426;48.372;10.888;2024-03-23T01:02:43;12.00;96.90
34153;DHT22;20426;48.372;10.888;2024-03-23T01:03:13;12.00;96.90
34153;DHT22;20426;48.372;10.888;2024-03-23T01:03:44;12.10;96.90
34153;DHT22;20426;48.372;10.888;2024-03-23T01:04:15;12.00;96.90
34153;DHT22;20426;48.372;10.888;2024-03-23T01:04:45;12.00;96.90
34153;DHT22;20426;48.372;10.888;2024-03-23T01:05:16;12.00;96.80
34153;DHT22;20426;48.372;10.888;2024-03-23T01:05:47;12.00;96.80
34153;DHT22;20426;48.372;10.888;2024-03-23T01:06:19;12.00;96.90
34153;DHT22;20426;48.372;10.888;2024-03-23T01:06:49;12.00;96.90
34153;DHT22;20426;48.372;10.888;2024-03-23T01:07:20;12.00;96.90
34153;DHT22;20426;48.372;10.888;2024-03-23T01:07:50;12.00;97.00
34153;DHT22;20426;48.372;10.888;2024-03-23T01:08:21;12.00;97.00
34153;DHT22;20426;48.372;10.888;2024-03-23T01:08:52;12.00;97.00
34153;DHT22;20426;48.372;10.888;2024-03-23T01:09:22;12.00;97.00
34153;DHT22;20426;48.372;10.888;2024-03-23T01:09:53;12.00;97.10
34153;DHT22;20426;48.372;10.888;2024-03-23T01:10:24;12.00;97.10
34153;DHT22;20426;48.372;10.888;2024-03-23T01:11:02;12.00;97.10
34153;DHT22;20426;48.372;10.888;2024-03-23T01:11:35;12.00;97.10
34153;DHT22;20426;48.372;10.888;2024-03-23T01:12:06;11.90;97.10
34153;DHT22;20426;48.372;10.888;2024-03-23T01:12:36;11.90;97.10
34153;DHT22;20426;48.372;10.888;2024-03-23T01:13:07;11.90;97.20
34153;DHT22;20426;48.372;10.888;2024-03-23T01:13:38;12.00;97.20
34153;DHT22;20426;48.372;10.888;2024-03-23T01:14:08;11.90;97.10
34153;DHT22;20426;48.372;10.888;2024-03-23T01:14:39;11.90;97.10
34153;DHT22;20426;48.372;10.888;2024-03-23T01:15:10;11.90;97.20
34153;DHT22;20426;48.372;10.888;2024-03-23T01:15:40;11.90;97.20
34153;DHT22;20426;48.372;10.888;2024-03-23T01:16:11;11.90;97.20
34153;DHT22;20426;48.372;10.888;2024-03-23T01:16:42;11.90;97.20
34153;DHT22;20426;48.372;10.888;2024-03-23T01:17:12;11.90;97.20
34153;DHT22;20426;48.372;10.888;2024-03-23T01:17:43;11.90;97.50
34153;DHT22;20426;48.372;10.888;2024-03-23T01:18:14;11.90;97.60
34153;DHT22;20426;48.372;10.888;2024-03-23T01:18:44;11.90;97.30
34153;DHT22;20426;48.372;10.888;2024-03-23T01:19:15;11.80;97.30
34153;DHT22;20426;48.372;10.888;2024-03-23T01:19:46;11.90;97.30
34153;DHT22;20426;48.372;10.888;2024-03-23T01:20:16;11.80;97.40
34153;DHT22;20426;48.372;10.888;2024-03-23T01:20:47;11.80;97.40
34153;DHT22;20426;48.372;10.888;2024-03-23T01:21:18;11.80;97.40
34153;DHT22;20426;48.372;10.888;2024-03-23T01:21:48;11.80;97.30
34153;DHT22;20426;48.372;10.888;2024-03-23T01:22:19;11.90;97.40
34153;DHT22;20426;48.372;10.888;2024-03-23T01:22:50;11.80;97.40
34153;DHT22;20426;48.372;10.888;2024-03-23T01:23:21;11.80;97.30
34153;DHT22;20426;48.372;10.888;2024-03-23T01:23:51;11.80;97.30
34153;DHT22;20426;48.372;10.888;2024-03-23T01:24:22;11.80;97.30
34153;DHT22;20426;48.372;10.888;2024-03-23T01:24:52;11.80;97.40
34153;DHT22;20426;48.372;10.888;2024-03-23T01:25:23;11.80;97.40
34153;DHT22;20426;48.372;10.888;2024-03-23T01:25:54;11.80;97.40
34153;DHT22;20426;48.372;10.888;2024-03-23T01:26:25;11.90;97.40
34153;DHT22;20426;48.372;10.888;2024-03-23T01:26:55;11.80;97.40
34153;DHT22;20426;48.372;10.888;2024-03-23T01:27:26;11.80;97.30
34153;DHT22;20426;48.372;10.888;2024-03-23T01:27:57;11.80;97.40
34153;DHT22;20426;48.372;10.888;2024-03-23T01:28:27;11.80;97.40
34153;DHT22;20426;48.372;10.888;2024-03-23T01:28:58;11.80;97.40
34153;DHT22;20426;48.372;10.888;2024-03-23T01:29:29;11.80;97.40
34153;DHT22;20426;48.372;10.888;2024-03-23T01:30:00;11.80;97.40
34153;DHT22;20426;48.372;10.888;2024-03-23T01:30:30;11.80;97.40
34153;DHT22;20426;48.372;10.888;2024-03-23T01:31:01;11.80;97.40
34153;DHT22;20426;48.372;10.888;2024-03-23T01:31:32;11.80;97.50
34153;DHT22;20426;48.372;10.888;2024-03-23T01:32:02;11.80;97.60
34153;DHT22;20426;48.372;10.888;2024-03-23T01:32:33;11.80;97.60
34153;DHT22;20426;48.372;10.888;2024-03-23T01:33:04;11.80;97.60
34153;DHT22;20426;48.372;10.888;2024-03-23T01:33:34;11.80;97.50
34153;DHT22;20426;48.372;10.888;2024-03-23T01:34:05;11.80;97.60
34153;DHT22;20426;48.372;10.888;2024-03-23T01:34:36;11.70;97.50
34153;DHT22;20426;48.372;10.888;2024-03-23T01:35:07;11.70;97.60
34153;DHT22;20426;48.372;10.888;2024-03-23T01:35:38;11.70;97.60
34153;DHT22;20426;48.372;10.888;2024-03-23T01:36:08;11.70;97.50
34153;DHT22;20426;48.372;10.888;2024-03-23T01:36:39;11.70;97.60
34153;DHT22;20426;48.372;10.888;2024-03-23T01:37:10;11.70;97.60
34153;DHT22;20426;48.372;10.888;2024-03-23T01:37:41;11.70;97.60
34153;DHT22;20426;48.372;10.888;2024-03-23T01:38:11;11.70;97.60
34153;DHT22;20426;48.372;10.888;2024-03-23T01:38:42;11.70;97.70
34153;DHT22;20426;48.372;10.888;2024-03-23T01:39:13;11.70;97.70
34153;DHT22;20426;48.372;10.888;2024-03-23T01:39:44;11.70;97.70
34153;DHT22;20426;48.372;10.888;2024-03-23T01:40:16;11.70;97.80
34153;DHT22;20426;48.372;10.888;2024-03-23T01:40:47;11.70;98.00
34153;DHT22;20426;48.372;10.888;2024-03-23T01:41:18;11.70;97.80
34153;DHT22;20426;48.372;10.888;2024-03-23T01:41:48;11.70;97.90
34153;DHT22;20426;48.372;10.888;2024-03-23T01:42:19;11.70;97.80
34153;DHT22;20426;48.372;10.888;2024-03-23T01:42:58;11.70;97.80
34153;DHT22;20426;48.372;10.888;2024-03-23T01:43:29;11.70;97.80
34153;DHT22;20426;48.372;10.888;2024-03-23T01:44:05;11.70;97.80
34153;DHT22;20426;48.372;10.888;2024-03-23T01:44:36;11.70;97.90
34153;DHT22;20426;48.372;10.888;2024-03-23T01:45:07;11.70;97.90
34153;DHT22;20426;48.372;10.888;2024-03-23T01:45:39;11.70;97.90
34153;DHT22;20426;48.372;10.888;2024-03-23T01:46:10;11.70;97.90
34153;DHT22;20426;48.372;10.888;2024-03-23T01:46:40;11.70;97.90
34153;DHT22;20426;48.372;10.888;2024-03-23T01:47:12;11.70;97.90
34153;DHT22;20426;48.372;10.888;2024-03-23T01:47:43;11.70;97.90
34153;DHT22;20426;48.372;10.888;2024-03-23T01:48:14;11.70;97.90
34153;DHT22;20426;48.372;10.888;2024-03-23T01:48:45;11.70;97.90
34153;DHT22;20426;48.372;10.888;2024-03-23T01:49:16;11.70;97.90
34153;DHT22;20426;48.372;10.888;2024-03-23T01:49:47;11.70;97.90
34153;DHT22;20426;48.372;10.888;2024-03-23T01:50:17;11.70;97.90
34153;DHT22;20426;48.372;10.888;2024-03-23T01:50:48;11.70;97.90
34153;DHT22;20426;48.372;10.888;2024-03-23T01:51:19;11.70;98.00
34153;DHT22;20426;48.372;10.888;2024-03-23T01:51:50;11.70;98.00
34153;DHT22;20426;48.372;10.888;2024-03-23T01:52:20;11.70;98.00
34153;DHT22;20426;48.372;10.888;2024-03-23T01:52:51;11.70;98.10
34153;DHT22;20426;48.372;10.888;2024-03-23T01:53:22;11.70;98.10
34153;DHT22;20426;48.372;10.888;2024-03-23T01:53:54;11.70;98.10
34153;DHT22;20426;48.372;10.888;2024-03-23T01:54:27;11.70;98.20
34153;DHT22;20426;48.372;10.888;2024-03-23T01:54:59;11.70;98.10
34153;DHT22;20426;48.372;10.888;2024-03-23T01:55:29;11.70;98.10
34153;DHT22;20426;48.372;10.888;2024-03-23T01:56:00;11.70;98.20
34153;DHT22;20426;48.372;10.888;2024-03-23T01:56:33;11.70;98.20
34153;DHT22;20426;48.372;10.888;2024-03-23T01:57:05;11.70;98.20
34153;DHT22;20426;48.372;10.888;2024-03-23T01:57:36;11.70;98.20
34153;DHT22;20426;48.372;10.888;2024-03-23T01:58:07;11.60;98.20
34153;DHT22;20426;48.372;10.888;2024-03-23T01:58:37;11.60;98.20
34153;DHT22;20426;48.372;10.888;2024-03-23T01:59:08;11.60;98.20
34153;DHT22;20426;48.372;10.888;2024-03-23T01:59:39;11.60;98.30
34153;DHT22;20426;48.372;10.888;2024-03-23T02:00:10;11.60;98.30
34153;DHT22;20426;48.372;10.888;2024-03-23T02:00:42;11.60;98.30
34153;DHT22;20426;48.372;10.888;2024-03-23T02:01:13;11.60;98.40
34153;DHT22;20426;48.372;10.888;2024-03-23T02:01:44;11.60;98.40
34153;DHT22;20426;48.372;10.888;2024-03-23T02:02:14;11.60;98.40
34153;DHT22;20426;48.372;10.888;2024-03-23T02:02:48;11.60;98.40
34153;DHT22;20426;48.372;10.888;2024-03-23T02:03:27;11.60;98.40
34153;DHT22;20426;48.372;10.888;2024-03-23T02:03:58;11.60;98.40
34153;DHT22;20426;48.372;10.888;2024-03-23T02:04:29;11.60;98.30
34153;DHT22;20426;48.372;10.888;2024-03-23T02:04:59;11.60;98.30
34153;DHT22;20426;48.372;10.888;2024-03-23T02:05:30;11.60;98.60
34153;DHT22;20426;48.372;10.888;2024-03-23T02:06:01;11.60;98.30
34153;DHT22;20426;48.372;10.888;2024-03-23T02:06:31;11.60;98.30
34153;DHT22;20426;48.372;10.888;2024-03-23T02:07:02;11.60;98.30
34153;DHT22;20426;48.372;10.888;2024-03-23T02:07:36;11.60;98.20
34153;DHT22;20426;48.372;10.888;2024-03-23T02:08:07;11.60;98.20
34153;DHT22;20426;48.372;10.888;2024-03-23T02:08:38;11.60;98.20
34153;DHT22;20426;48.372;10.888;2024-03-23T02:09:09;11.60;98.30
34153;DHT22;20426;48.372;10.888;2024-03-23T02:09:40;11.60;98.30
34153;DHT22;20426;48.372;10.888;2024-03-23T02:10:11;11.60;98.30
34153;DHT22;20426;48.372;10.888;2024-03-23T02:10:45;11.60;98.20
34153;DHT22;20426;48.372;10.888;2024-03-23T02:11:16;11.60;98.20
34153;DHT22;20426;48.372;10.888;2024-03-23T02:11:46;11.60;98.20
34153;DHT22;20426;48.372;10.888;2024-03-23T02:12:17;11.60;98.30
34153;DHT22;20426;48.372;10.888;2024-03-23T02:12:48;11.60;98.40
34153;DHT22;20426;48.372;10.888;2024-03-23T02:13:19;11.60;98.40
34153;DHT22;20426;48.372;10.888;2024-03-23T02:13:50;11.60;98.40
34153;DHT22;20426;48.372;10.888;2024-03-23T02:14:20;11.60;98.40
34153;DHT22;20426;48.372;10.888;2024-03-23T02:14:51;11.60;98.40
34153;DHT22;20426;48.372;10.888;2024-03-23T02:15:22;11.60;98.40
34153;DHT22;20426;48.372;10.888;2024-03-23T02:15:52;11.60;98.40
34153;DHT22;20426;48.372;10.888;2024-03-23T02:16:23;11.60;98.40
34153;DHT22;20426;48.372;10.888;2024-03-23T02:16:54;11.60;98.40
34153;DHT22;20426;48.372;10.888;2024-03-23T02:17:24;11.60;98.30
34153;DHT22;20426;48.372;10.888;2024-03-23T02:17:55;11.60;98.40
34153;DHT22;20426;48.372;10.888;2024-03-23T02:18:25;11.60;98.40
34153;DHT22;20426;48.372;10.888;2024-03-23T02:18:56;11.60;98.40
34153;DHT22;20426;48.372;10.888;2024-03-23T02:19:27;11.60;98.40
34153;DHT22;20426;48.372;10.888;2024-03-23T02:19:57;11.60;98.50
34153;DHT22;20426;48.372;10.888;2024-03-23T02:20:28;11.60;98.50
34153;DHT22;20426;48.372;10.888;2024-03-23T02:20:59;11.60;98.40
34153;DHT22;20426;48.372;10.888;2024-03-23T02:21:29;11.60;98.50
34153;DHT22;20426;48.372;10.888;2024-03-23T02:22:02;11.60;98.50
34153;DHT22;20426;48.372;10.888;2024-03-23T02:22:36;11.60;98.40
34153;DHT22;20426;48.372;10.888;2024-03-23T02:23:17;11.50;98.40
34153;DHT22;20426;48.372;10.888;2024-03-23T02:23:50;11.60;98.60
34153;DHT22;20426;48.372;10.888;2024-03-23T02:24:21;11.60;98.50
34153;DHT22;20426;48.372;10.888;2024-03-23T02:24:52;11.50;98.40
34153;DHT22;20426;48.372;10.888;2024-03-23T02:25:22;11.60;98.50
34153;DHT22;20426;48.372;10.888;2024-03-23T02:25:53;11.60;98.50
34153;DHT22;20426;48.372;10.888;2024-03-23T02:26:24;11.50;98.50
34153;DHT22;20426;48.372;10.888;2024-03-23T02:26:54;11.60;98.50
34153;DHT22;20426;48.372;10.888;2024-03-23T02:27:25;11.60;98.50
34153;DHT22;20426;48.372;10.888;2024-03-23T02:27:56;11.60;98.50
34153;DHT22;20426;48.372;10.888;2024-03-23T02:28:26;11.60;98.50
34153;DHT22;20426;48.372;10.888;2024-03-23T02:28:57;11.60;98.60
34153;DHT22;20426;48.372;10.888;2024-03-23T02:29:28;11.60;98.60
34153;DHT22;20426;48.372;10.888;2024-03-23T02:29:58;11.60;98.60
34153;DHT22;20426;48.372;10.888;2024-03-23T02:30:29;11.60;98.60
34153;DHT22;20426;48.372;10.888;2024-03-23T02:31:00;11.50;98.50
34153;DHT22;20426;48.372;10.888;2024-03-23T02:31:31;11.50;98.90
34153;DHT22;20426;48.372;10.888;2024-03-23T02:32:02;11.50;98.50
34153;DHT22;20426;48.372;10.888;2024-03-23T02:32:33;11.50;98.60
34153;DHT22;20426;48.372;10.888;2024-03-23T02:33:04;11.50;98.60
34153;DHT22;20426;48.372;10.888;2024-03-23T02:33:34;11.50;98.60
34153;DHT22;20426;48.372;10.888;2024-03-23T02:34:08;11.50;98.70
34153;DHT22;20426;48.372;10.888;2024-03-23T02:34:39;11.50;98.70
34153;DHT22;20426;48.372;10.888;2024-03-23T02:35:10;11.50;98.70
34153;DHT22;20426;48.372;10.888;2024-03-23T02:35:40;11.50;98.60
34153;DHT22;20426;48.372;10.888;2024-03-23T02:36:11;11.50;98.60
34153;DHT22;20426;48.372;10.888;2024-03-23T02:36:42;11.50;98.60
34153;DHT22;20426;48.372;10.888;2024-03-23T02:37:12;11.50;98.60
34153;DHT22;20426;48.372;10.888;2024-03-23T02:37:43;11.50;98.60
34153;DHT22;20426;48.372;10.888;2024-03-23T02:38:13;11.60;98.60
34153;DHT22;20426;48.372;10.888;2024-03-23T02:38:44;11.50;98.60
34153;DHT22;20426;48.372;10.888;2024-03-23T02:39:15;11.50;98.60
34153;DHT22;20426;48.372;10.888;2024-03-23T02:39:46;11.50;98.70
34153;DHT22;20426;48.372;10.888;2024-03-23T02:40:18;11.50;98.70
34153;DHT22;20426;48.372;10.888;2024-03-23T02:40:49;11.60;98.70
34153;DHT22;20426;48.372;10.888;2024-03-23T02:41:20;11.50;98.60
34153;DHT22;20426;48.372;10.888;2024-03-23T02:41:53;11.50;98.70
34153;DHT22;20426;48.372;10.888;2024-03-23T02:42:24;11.60;98.70
34153;DHT22;20426;48.372;10.888;2024-03-23T02:42:54;11.60;98.70
34153;DHT22;20426;48.372;10.888;2024-03-23T02:43:25;11.50;98.60
34153;DHT22;20426;48.372;10.888;2024-03-23T02:43:56;11.60;98.70
34153;DHT22;20426;48.372;10.888;2024-03-23T02:44:27;11.50;98.70
34153;DHT22;20426;48.372;10.888;2024-03-23T02:44:58;11.50;98.80
34153;DHT22;20426;48.372;10.888;2024-03-23T02:45:29;11.50;98.80
34153;DHT22;20426;48.372;10.888;2024-03-23T02:46:00;11.50;98.80
34153;DHT22;20426;48.372;10.888;2024-03-23T02:46:31;11.50;98.80
34153;DHT22;20426;48.372;10.888;2024-03-23T02:47:02;11.50;98.80
34153;DHT22;20426;48.372;10.888;2024-03-23T02:47:33;11.50;99.00
34153;DHT22;20426;48.372;10.888;2024-03-23T02:48:03;11.50;98.80
34153;DHT22;20426;48.372;10.888;2024-03-23T02:48:34;11.50;98.70
34153;DHT22;20426;48.372;10.888;2024-03-23T02:49:05;11.50;98.70
34153;DHT22;20426;48.372;10.888;2024-03-23T02:49:35;11.50;98.90
34153;DHT22;20426;48.372;10.888;2024-03-23T02:50:07;11.50;98.80
34153;DHT22;20426;48.372;10.888;2024-03-23T02:50:37;11.50;98.90
34153;DHT22;20426;48.372;10.888;2024-03-23T02:51:08;11.50;98.90
34153;DHT22;20426;48.372;10.888;2024-03-23T02:51:39;11.50;98.90
34153;DHT22;20426;48.372;10.888;2024-03-23T02:52:11;11.50;98.90
34153;DHT22;20426;48.372;10.888;2024-03-23T02:52:42;11.50;98.90
34153;DHT22;20426;48.372;10.888;2024-03-23T02:53:12;11.50;99.00
34153;DHT22;20426;48.372;10.888;2024-03-23T02:53:43;11.50;99.00
34153;DHT22;20426;48.372;10.888;2024-03-23T02:54:13;11.50;99.00
34153;DHT22;20426;48.372;10.888;2024-03-23T02:54:44;11.50;98.90
34153;DHT22;20426;48.372;10.888;2024-03-23T02:55:16;11.50;98.90
34153;DHT22;20426;48.372;10.888;2024-03-23T02:55:46;11.50;98.90
34153;DHT22;20426;48.372;10.888;2024-03-23T02:56:17;11.50;98.90
34153;DHT22;20426;48.372;10.888;2024-03-23T02:56:47;11.50;98.90
34153;DHT22;20426;48.372;10.888;2024-03-23T02:57:19;11.50;98.90
34153;DHT22;20426;48.372;10.888;2024-03-23T02:57:50;11.50;99.00
34153;DHT22;20426;48.372;10.888;2024-03-23T02:58:21;11.50;98.90
34153;DHT22;20426;48.372;10.888;2024-03-23T02:58:51;11.50;99.00
34153;DHT22;20426;48.372;10.888;2024-03-23T02:59:22;11.50;99.10
34153;DHT22;20426;48.372;10.888;2024-03-23T02:59:53;11.50;99.00
34153;DHT22;20426;48.372;10.888;2024-03-23T03:00:23;11.50;99.00
34153;DHT22;20426;48.372;10.888;2024-03-23T03:00:54;11.50;98.90
34153;DHT22;20426;48.372;10.888;2024-03-23T03:01:25;11.50;99.00
34153;DHT22;20426;48.372;10.888;2024-03-23T03:01:56;11.50;99.00
34153;DHT22;20426;48.372;10.888;2024-03-23T03:02:27;11.50;99.00
34153;DHT22;20426;48.372;10.888;2024-03-23T03:02:57;11.50;99.00
34153;DHT22;20426;48.372;10.888;2024-03-23T03:03:28;11.50;99.00
34153;DHT22;20426;48.372;10.888;2024-03-23T03:04:00;11.50;99.00
34153;DHT22;20426;48.372;10.888;2024-03-23T03:04:31;11.50;99.00
34153;DHT22;20426;48.372;10.888;2024-03-23T03:05:02;11.40;98.90
34153;DHT22;20426;48.372;10.888;2024-03-23T03:05:33;11.40;99.00
34153;DHT22;20426;48.372;10.888;2024-03-23T03:06:03;11.40;99.10
34153;DHT22;20426;48.372;10.888;2024-03-23T03:06:34;11.40;99.10
34153;DHT22;20426;48.372;10.888;2024-03-23T03:07:05;11.40;99.10
34153;DHT22;20426;48.372;10.888;2024-03-23T03:07:36;11.40;99.10
34153;DHT22;20426;48.372;10.888;2024-03-23T03:08:09;11.40;99.00
34153;DHT22;20426;48.372;10.888;2024-03-23T03:08:40;11.40;99.40
34153;DHT22;20426;48.372;10.888;2024-03-23T03:09:10;11.40;99.20
34153;DHT22;20426;48.372;10.888;2024-03-23T03:09:41;11.40;99.20
34153;DHT22;20426;48.372;10.888;2024-03-23T03:10:12;11.40;99.20
34153;DHT22;20426;48.372;10.888;2024-03-23T03:10:42;11.40;99.10
34153;DHT22;20426;48.372;10.888;2024-03-23T03:11:13;11.40;99.10
34153;DHT22;20426;48.372;10.888;2024-03-23T03:11:43;11.40;99.20
34153;DHT22;20426;48.372;10.888;2024-03-23T03:12:14;11.40;99.30
34153;DHT22;20426;48.372;10.888;2024-03-23T03:12:45;11.40;99.30
34153;DHT22;20426;48.372;10.888;2024-03-23T03:13:15;11.40;99.20
34153;DHT22;20426;48.372;10.888;2024-03-23T03:13:46;11.40;99.20
34153;DHT22;20426;48.372;10.888;2024-03-23T03:14:17;11.40;99.20
34153;DHT22;20426;48.372;10.888;2024-03-23T03:14:48;11.40;99.20
34153;DHT22;20426;48.372;10.888;2024-03-23T03:15:18;11.40;99.30
34153;DHT22;20426;48.372;10.888;2024-03-23T03:15:49;11.40;99.30
34153;DHT22;20426;48.372;10.888;2024-03-23T03:16:20;11.40;99.30
34153;DHT22;20426;48.372;10.888;2024-03-23T03:16:50;11.40;99.30
34153;DHT22;20426;48.372;10.888;2024-03-23T03:17:21;11.40;99.30
34153;DHT22;20426;48.372;10.888;2024-03-23T03:17:52;11.40;99.40
34153;DHT22;20426;48.372;10.888;2024-03-23T03:18:22;11.40;99.40
34153;DHT22;20426;48.372;10.888;2024-03-23T03:18:53;11.40;99.40
34153;DHT22;20426;48.372;10.888;2024-03-23T03:19:24;11.40;99.30
34153;DHT22;20426;48.372;10.888;2024-03-23T03:19:54;11.40;99.60
34153;DHT22;20426;48.372;10.888;2024-03-23T03:20:26;11.40;99.30
34153;DHT22;20426;48.372;10.888;2024-03-23T03:20:56;11.40;99.30
34153;DHT22;20426;48.372;10.888;2024-03-23T03:21:28;11.40;99.40
34153;DHT22;20426;48.372;10.888;2024-03-23T03:21:58;11.40;99.40
34153;DHT22;20426;48.372;10.888;2024-03-23T03:22:29;11.40;99.40
34153;DHT22;20426;48.372;10.888;2024-03-23T03:23:00;11.40;99.40
34153;DHT22;20426;48.372;10.888;2024-03-23T03:23:30;11.40;99.40
34153;DHT22;20426;48.372;10.888;2024-03-23T03:24:01;11.40;99.40
34153;DHT22;20426;48.372;10.888;2024-03-23T03:24:32;11.40;99.50
34153;DHT22;20426;48.372;10.888;2024-03-23T03:25:03;11.40;99.40
34153;DHT22;20426;48.372;10.888;2024-03-23T03:25:34;11.40;99.50
34153;DHT22;20426;48.372;10.888;2024-03-23T03:26:05;11.40;99.40
34153;DHT22;20426;48.372;10.888;2024-03-23T03:26:36;11.40;99.50
34153;DHT22;20426;48.372;10.888;2024-03-23T03:27:07;11.40;99.50
34153;DHT22;20426;48.372;10.888;2024-03-23T03:27:38;11.40;99.40
34153;DHT22;20426;48.372;10.888;2024-03-23T03:28:09;11.40;99.40
34153;DHT22;20426;48.372;10.888;2024-03-23T03:28:39;11.40;99.30
34153;DHT22;20426;48.372;10.888;2024-03-23T03:29:10;11.40;99.40
34153;DHT22;20426;48.372;10.888;2024-03-23T03:29:42;11.40;99.40
34153;DHT22;20426;48.372;10.888;2024-03-23T03:30:13;11.40;99.70
34153;DHT22;20426;48.372;10.888;2024-03-23T03:30:43;11.40;99.50
34153;DHT22;20426;48.372;10.888;2024-03-23T03:31:15;11.40;99.50
34153;DHT22;20426;48.372;10.888;2024-03-23T03:31:46;11.40;99.60
34153;DHT22;20426;48.372;10.888;2024-03-23T03:32:17;11.30;99.60
34153;DHT22;20426;48.372;10.888;2024-03-23T03:32:49;11.30;99.70
34153;DHT22;20426;48.372;10.888;2024-03-23T03:33:22;11.30;99.70
34153;DHT22;20426;48.372;10.888;2024-03-23T03:33:53;11.20;99.70
34153;DHT22;20426;48.372;10.888;2024-03-23T03:34:23;11.20;99.80
34153;DHT22;20426;48.372;10.888;2024-03-23T03:34:54;11.10;99.90
34153;DHT22;20426;48.372;10.888;2024-03-23T03:35:25;11.10;99.90
34153;DHT22;20426;48.372;10.888;2024-03-23T03:35:55;11.10;99.90
34153;DHT22;20426;48.372;10.888;2024-03-23T03:36:26;11.10;99.90
34153;DHT22;20426;48.372;10.888;2024-03-23T03:36:57;11.00;99.90
34153;DHT22;20426;48.372;10.888;2024-03-23T03:37:28;11.00;99.90
34153;DHT22;20426;48.372;10.888;2024-03-23T03:37:58;10.90;99.90
34153;DHT22;20426;48.372;10.888;2024-03-23T03:38:29;10.90;99.90
34153;DHT22;20426;48.372;10.888;2024-03-23T03:39:00;10.90;99.90
34153;DHT22;20426;48.372;10.888;2024-03-23T03:39:31;10.90;99.90
34153;DHT22;20426;48.372;10.888;2024-03-23T03:40:01;10.90;99.90
34153;DHT22;20426;48.372;10.888;2024-03-23T03:40:32;10.80;99.90
34153;DHT22;20426;48.372;10.888;2024-03-23T03:41:03;10.80;99.90
34153;DHT22;20426;48.372;10.888;2024-03-23T03:41:33;10.80;99.90
34153;DHT22;20426;48.372;10.888;2024-03-23T03:42:04;10.80;99.90
34153;DHT22;20426;48.372;10.888;2024-03-23T03:42:37;10.80;99.90
34153;DHT22;20426;48.372;10.888;2024-03-23T03:43:08;10.70;99.90
34153;DHT22;20426;48.372;10.888;2024-03-23T03:43:38;10.70;99.90
34153;DHT22;20426;48.372;10.888;2024-03-23T03:44:09;10.70;99.90
34153;DHT22;20426;48.372;10.888;2024-03-23T03:44:39;10.70;99.90
34153;DHT22;20426;48.372;10.888;2024-03-23T03:45:10;10.70;99.90
34153;DHT22;20426;48.372;10.888;2024-03-23T03:45:41;10.70;99.90
34153;DHT22;20426;48.372;10.888;2024-03-23T03:46:11;10.70;99.90
34153;DHT22;20426;48.372;10.888;2024-03-23T03:46:42;10.60;99.90
34153;DHT22;20426;48.372;10.888;2024-03-23T03:47:13;10.60;99.90
34153;DHT22;20426;48.372;10.888;2024-03-23T03:47:43;10.60;99.90
34153;DHT22;20426;48.372;10.888;2024-03-23T03:48:14;10.70;99.90
34153;DHT22;20426;48.372;10.888;2024-03-23T03:48:45;10.60;99.90
34153;DHT22;20426;48.372;10.888;2024-03-23T03:49:16;10.70;99.90
34153;DHT22;20426;48.372;10.888;2024-03-23T03:49:47;10.70;99.90
34153;DHT22;20426;48.372;10.888;2024-03-23T03:50:19;10.70;99.90
34153;DHT22;20426;48.372;10.888;2024-03-23T03:50:50;10.70;99.90
34153;DHT22;20426;48.372;10.888;2024-03-23T03:51:21;10.70;99.90
34153;DHT22;20426;48.372;10.888;2024-03-23T03:51:51;10.70;99.90
34153;DHT22;20426;48.372;10.888;2024-03-23T03:52:22;10.70;99.90
34153;DHT22;20426;48.372;10.888;2024-03-23T03:52:53;10.70;99.90
34153;DHT22;20426;48.372;10.888;2024-03-23T03:53:23;10.70;99.90
34153;DHT22;20426;48.372;10.888;2024-03-23T03:53:54;10.70;99.90
34153;DHT22;20426;48.372;10.888;2024-03-23T03:54:25;10.70;99.90
34153;DHT22;20426;48.372;10.888;2024-03-23T03:55:01;10.80;99.90
34153;DHT22;20426;48.372;10.888;2024-03-23T03:55:32;10.80;99.90
34153;DHT22;20426;48.372;10.888;2024-03-23T03:56:03;10.80;99.90
34153;DHT22;20426;48.372;10.888;2024-03-23T03:56:34;10.80;99.90
34153;DHT22;20426;48.372;10.888;2024-03-23T03:57:05;10.80;99.90
34153;DHT22;20426;48.372;10.888;2024-03-23T03:57:35;10.80;99.90
34153;DHT22;20426;48.372;10.888;2024-03-23T03:58:06;10.80;99.90
34153;DHT22;20426;48.372;10.888;2024-03-23T03:58:37;10.80;99.90
34153;DHT22;20426;48.372;10.888;2024-03-23T03:59:07;10.90;99.90
34153;DHT22;20426;48.372;10.888;2024-03-23T03:59:38;10.90;99.90
34153;DHT22;20426;48.372;10.888;2024-03-23T04:00:09;10.90;99.90
34153;DHT22;20426;48.372;10.888;2024-03-23T04:00:43;10.90;99.90
34153;DHT22;20426;48.372;10.888;2024-03-23T04:01:14;11.00;99.90
34153;DHT22;20426;48.372;10.888;2024-03-23T04:01:45;11.00;99.90
34153;DHT22;20426;48.372;10.888;2024-03-23T04:02:15;11.00;99.90
34153;DHT22;20426;48.372;10.888;2024-03-23T04:02:46;11.00;99.90
34153;DHT22;20426;48.372;10.888;2024-03-23T04:03:17;11.00;99.90
34153;DHT22;20426;48.372;10.888;2024-03-23T04:03:47;11.10;99.90
34153;DHT22;20426;48.372;10.888;2024-03-23T04:04:18;11.10;99.90
34153;DHT22;20426;48.372;10.888;2024-03-23T04:04:49;11.10;99.90
34153;DHT22;20426;48.372;10.888;2024-03-23T04:05:19;11.10;99.90
34153;DHT22;20426;48.372;10.888;2024-03-23T04:05:52;11.10;99.90